KBML/BML METAR and TAF weather

Enter ICAO airport designator
Station Type Date Time Source
KBML METAR 2021/03/07 08:52 UTC NOAA

KBML 070852Z AUTO 00000KT 10SM CLR M15/M18 A3010 RMK AO2 SLP219 T11501178 53012


Station Type Date Time Source
KBML Decoded METAR 2021/03/07 08:52 UTC NOAA

BERLIN MUNICIPAL AIRPORT, NH, United States (KBML) 44-35N 71-11W 345M
Mar 07, 2021 - 03:52 AM EST / 2021.03.07 0852 UTC
Wind: Calm:0
Visibility: 10 mile(s):0
Sky conditions: clear
Temperature: 5.0 F (-15.0 C)
Dew Point: -0.0 F (-17.8 C)
Relative Humidity: 79%
Pressure (altimeter): 30.1 in. Hg (1019 hPa)
Pressure tendency: 0.04 inches (1.2 hPa) higher than three hours ago
ob: KBML 070852Z AUTO 00000KT 10SM CLR M15/M18 A3010 RMK AO2 SLP219 T11501178 53012
cycle: 9

Station Type Date Time Source
KBML TAF UTC NOAA

Error!

Example: see airport list